sensor_id;sensor_type;location;lat;lon;timestamp;P1;durP1;ratioP1;P2;durP2;ratioP2
22015;SDS011;64992;51.698;-0.292;2022-12-05T00:00:30;55.55;;;31.02;;
22015;SDS011;64992;51.698;-0.292;2022-12-05T00:02:56;59.92;;;32.92;;
22015;SDS011;64992;51.698;-0.292;2022-12-05T00:05:22;66.45;;;31.90;;
22015;SDS011;64992;51.698;-0.292;2022-12-05T00:07:48;60.85;;;32.17;;
22015;SDS011;64992;51.698;-0.292;2022-12-05T00:10:14;62.38;;;32.72;;
22015;SDS011;64992;51.698;-0.292;2022-12-05T00:12:40;59.72;;;32.38;;
22015;SDS011;64992;51.698;-0.292;2022-12-05T00:15:06;57.45;;;31.85;;
22015;SDS011;64992;51.698;-0.292;2022-12-05T00:17:36;58.25;;;31.27;;
22015;SDS011;64992;51.698;-0.292;2022-12-05T00:20:02;57.72;;;32.10;;
22015;SDS011;64992;51.698;-0.292;2022-12-05T00:22:28;66.07;;;38.03;;
22015;SDS011;64992;51.698;-0.292;2022-12-05T00:24:54;66.55;;;38.70;;
22015;SDS011;64992;51.698;-0.292;2022-12-05T00:27:20;58.88;;;34.30;;
22015;SDS011;64992;51.698;-0.292;2022-12-05T00:29:46;57.40;;;31.33;;
22015;SDS011;64992;51.698;-0.292;2022-12-05T00:32:12;58.55;;;34.72;;
22015;SDS011;64992;51.698;-0.292;2022-12-05T00:34:38;55.47;;;31.70;;
22015;SDS011;64992;51.698;-0.292;2022-12-05T00:37:04;54.17;;;30.08;;
22015;SDS011;64992;51.698;-0.292;2022-12-05T00:39:30;54.67;;;33.13;;
22015;SDS011;64992;51.698;-0.292;2022-12-05T00:41:56;62.15;;;32.47;;
22015;SDS011;64992;51.698;-0.292;2022-12-05T00:44:22;57.55;;;33.35;;
22015;SDS011;64992;51.698;-0.292;2022-12-05T00:46:48;54.55;;;31.92;;
22015;SDS011;64992;51.698;-0.292;2022-12-05T00:49:14;60.78;;;33.58;;
22015;SDS011;64992;51.698;-0.292;2022-12-05T00:51:41;64.45;;;33.30;;
22015;SDS011;64992;51.698;-0.292;2022-12-05T00:54:09;52.92;;;31.70;;
22015;SDS011;64992;51.698;-0.292;2022-12-05T00:56:35;63.83;;;32.92;;
22015;SDS011;64992;51.698;-0.292;2022-12-05T00:59:01;57.67;;;32.65;;
22015;SDS011;64992;51.698;-0.292;2022-12-05T01:01:32;55.80;;;34.20;;
22015;SDS011;64992;51.698;-0.292;2022-12-05T01:03:59;59.92;;;35.00;;
22015;SDS011;64992;51.698;-0.292;2022-12-05T01:06:26;52.33;;;32.53;;
22015;SDS011;64992;51.698;-0.292;2022-12-05T01:08:53;52.67;;;30.77;;
22015;SDS011;64992;51.698;-0.292;2022-12-05T01:11:19;56.53;;;32.40;;
22015;SDS011;64992;51.698;-0.292;2022-12-05T01:13:46;62.72;;;33.85;;
22015;SDS011;64992;51.698;-0.292;2022-12-05T01:16:13;55.78;;;33.08;;
22015;SDS011;64992;51.698;-0.292;2022-12-05T01:18:39;60.63;;;34.20;;
22015;SDS011;64992;51.698;-0.292;2022-12-05T01:21:05;59.72;;;34.83;;
22015;SDS011;64992;51.698;-0.292;2022-12-05T01:23:31;50.67;;;30.73;;
22015;SDS011;64992;51.698;-0.292;2022-12-05T01:25:57;63.25;;;32.22;;
22015;SDS011;64992;51.698;-0.292;2022-12-05T01:28:23;63.63;;;33.45;;
22015;SDS011;64992;51.698;-0.292;2022-12-05T01:30:49;65.53;;;33.05;;
22015;SDS011;64992;51.698;-0.292;2022-12-05T01:33:15;62.22;;;32.45;;
22015;SDS011;64992;51.698;-0.292;2022-12-05T01:35:41;56.15;;;32.65;;
22015;SDS011;64992;51.698;-0.292;2022-12-05T01:38:09;55.15;;;31.27;;
22015;SDS011;64992;51.698;-0.292;2022-12-05T01:40:35;55.10;;;30.45;;
22015;SDS011;64992;51.698;-0.292;2022-12-05T01:43:02;60.00;;;32.05;;
22015;SDS011;64992;51.698;-0.292;2022-12-05T01:45:33;66.53;;;31.35;;
22015;SDS011;64992;51.698;-0.292;2022-12-05T01:48:00;55.35;;;30.52;;
22015;SDS011;64992;51.698;-0.292;2022-12-05T01:50:27;53.42;;;34.90;;
22015;SDS011;64992;51.698;-0.292;2022-12-05T01:52:53;59.00;;;33.42;;
22015;SDS011;64992;51.698;-0.292;2022-12-05T01:55:19;53.75;;;32.15;;
22015;SDS011;64992;51.698;-0.292;2022-12-05T01:57:45;56.40;;;32.50;;
22015;SDS011;64992;51.698;-0.292;2022-12-05T02:00:16;61.28;;;33.28;;
22015;SDS011;64992;51.698;-0.292;2022-12-05T02:02:44;53.97;;;33.95;;
22015;SDS011;64992;51.698;-0.292;2022-12-05T02:05:16;52.00;;;30.40;;
22015;SDS011;64992;51.698;-0.292;2022-12-05T02:07:42;51.47;;;30.77;;
22015;SDS011;64992;51.698;-0.292;2022-12-05T02:10:09;54.03;;;31.42;;
22015;SDS011;64992;51.698;-0.292;2022-12-05T02:12:35;58.25;;;33.85;;
22015;SDS011;64992;51.698;-0.292;2022-12-05T02:30:44;55.25;;;31.20;;
22015;SDS011;64992;51.698;-0.292;2022-12-05T02:38:18;58.55;;;37.53;;
22015;SDS011;64992;51.698;-0.292;2022-12-05T02:46:18;55.95;;;33.58;;
22015;SDS011;64992;51.698;-0.292;2022-12-05T02:48:46;55.53;;;36.15;;
22015;SDS011;64992;51.698;-0.292;2022-12-05T02:51:13;66.20;;;34.45;;
22015;SDS011;64992;51.698;-0.292;2022-12-05T02:53:41;56.97;;;33.90;;
22015;SDS011;64992;51.698;-0.292;2022-12-05T02:56:09;54.95;;;31.98;;
22015;SDS011;64992;51.698;-0.292;2022-12-05T02:58:37;61.03;;;34.65;;
22015;SDS011;64992;51.698;-0.292;2022-12-05T03:01:06;56.65;;;33.20;;
22015;SDS011;64992;51.698;-0.292;2022-12-05T03:03:32;64.15;;;35.85;;
22015;SDS011;64992;51.698;-0.292;2022-12-05T03:08:31;57.10;;;33.30;;
22015;SDS011;64992;51.698;-0.292;2022-12-05T03:11:00;60.38;;;33.08;;
22015;SDS011;64992;51.698;-0.292;2022-12-05T03:13:28;60.35;;;33.80;;
22015;SDS011;64992;51.698;-0.292;2022-12-05T03:15:58;57.72;;;31.27;;
22015;SDS011;64992;51.698;-0.292;2022-12-05T03:18:28;55.88;;;32.53;;
22015;SDS011;64992;51.698;-0.292;2022-12-05T03:23:25;59.10;;;32.90;;
22015;SDS011;64992;51.698;-0.292;2022-12-05T03:26:03;53.05;;;31.65;;
22015;SDS011;64992;51.698;-0.292;2022-12-05T03:31:09;48.75;;;28.13;;
22015;SDS011;64992;51.698;-0.292;2022-12-05T03:33:37;45.38;;;33.22;;
22015;SDS011;64992;51.698;-0.292;2022-12-05T03:36:28;51.13;;;29.65;;
22015;SDS011;64992;51.698;-0.292;2022-12-05T03:39:04;48.30;;;29.63;;
22015;SDS011;64992;51.698;-0.292;2022-12-05T03:46:28;45.10;;;30.20;;
22015;SDS011;64992;51.698;-0.292;2022-12-05T03:49:02;52.17;;;30.35;;
22015;SDS011;64992;51.698;-0.292;2022-12-05T03:51:37;49.58;;;28.48;;
22015;SDS011;64992;51.698;-0.292;2022-12-05T03:54:09;48.10;;;29.15;;
22015;SDS011;64992;51.698;-0.292;2022-12-05T03:56:42;46.22;;;27.08;;
22015;SDS011;64992;51.698;-0.292;2022-12-05T03:59:14;37.85;;;26.08;;
22015;SDS011;64992;51.698;-0.292;2022-12-05T04:01:41;38.58;;;24.23;;
22015;SDS011;64992;51.698;-0.292;2022-12-05T04:04:13;38.72;;;28.02;;
22015;SDS011;64992;51.698;-0.292;2022-12-05T04:06:42;42.88;;;25.00;;
22015;SDS011;64992;51.698;-0.292;2022-12-05T04:09:18;43.40;;;26.10;;
22015;SDS011;64992;51.698;-0.292;2022-12-05T04:11:46;41.35;;;28.15;;
22015;SDS011;64992;51.698;-0.292;2022-12-05T04:14:14;42.58;;;25.75;;
22015;SDS011;64992;51.698;-0.292;2022-12-05T04:16:44;40.63;;;25.23;;
22015;SDS011;64992;51.698;-0.292;2022-12-05T04:22:16;40.90;;;23.23;;
22015;SDS011;64992;51.698;-0.292;2022-12-05T04:24:42;41.03;;;25.33;;
22015;SDS011;64992;51.698;-0.292;2022-12-05T04:27:29;39.10;;;26.60;;
22015;SDS011;64992;51.698;-0.292;2022-12-05T04:30:21;39.38;;;24.85;;
22015;SDS011;64992;51.698;-0.292;2022-12-05T04:35:13;36.17;;;23.90;;
22015;SDS011;64992;51.698;-0.292;2022-12-05T04:37:43;37.80;;;25.38;;
22015;SDS011;64992;51.698;-0.292;2022-12-05T04:40:29;36.67;;;24.05;;
22015;SDS011;64992;51.698;-0.292;2022-12-05T04:42:58;40.33;;;25.00;;
22015;SDS011;64992;51.698;-0.292;2022-12-05T04:45:25;36.33;;;22.90;;
22015;SDS011;64992;51.698;-0.292;2022-12-05T04:47:56;36.08;;;22.38;;
22015;SDS011;64992;51.698;-0.292;2022-12-05T04:50:24;33.25;;;22.88;;
22015;SDS011;64992;51.698;-0.292;2022-12-05T04:52:52;40.00;;;24.02;;
22015;SDS011;64992;51.698;-0.292;2022-12-05T04:55:22;45.72;;;22.95;;
22015;SDS011;64992;51.698;-0.292;2022-12-05T04:58:13;34.28;;;22.80;;
22015;SDS011;64992;51.698;-0.292;2022-12-05T05:05:51;34.83;;;23.38;;
22015;SDS011;64992;51.698;-0.292;2022-12-05T05:08:20;37.10;;;23.00;;
22015;SDS011;64992;51.698;-0.292;2022-12-05T05:10:49;39.35;;;22.77;;
22015;SDS011;64992;51.698;-0.292;2022-12-05T05:13:17;38.78;;;21.35;;
22015;SDS011;64992;51.698;-0.292;2022-12-05T05:15:43;37.38;;;22.50;;
22015;SDS011;64992;51.698;-0.292;2022-12-05T05:18:09;34.88;;;22.48;;
22015;SDS011;64992;51.698;-0.292;2022-12-05T05:20:35;30.15;;;21.35;;
22015;SDS011;64992;51.698;-0.292;2022-12-05T05:23:01;33.45;;;21.08;;
22015;SDS011;64992;51.698;-0.292;2022-12-05T05:25:27;30.00;;;21.27;;
22015;SDS011;64992;51.698;-0.292;2022-12-05T05:27:53;33.40;;;20.75;;
22015;SDS011;64992;51.698;-0.292;2022-12-05T05:30:20;26.58;;;20.20;;
22015;SDS011;64992;51.698;-0.292;2022-12-05T05:32:47;25.67;;;17.92;;
22015;SDS011;64992;51.698;-0.292;2022-12-05T05:35:13;29.88;;;18.48;;
22015;SDS011;64992;51.698;-0.292;2022-12-05T05:37:39;29.90;;;20.05;;
22015;SDS011;64992;51.698;-0.292;2022-12-05T05:40:06;29.40;;;20.33;;
22015;SDS011;64992;51.698;-0.292;2022-12-05T05:42:32;27.85;;;18.38;;
22015;SDS011;64992;51.698;-0.292;2022-12-05T05:44:58;27.70;;;18.23;;
22015;SDS011;64992;51.698;-0.292;2022-12-05T05:47:24;27.90;;;18.13;;
22015;SDS011;64992;51.698;-0.292;2022-12-05T05:49:50;30.40;;;19.67;;
22015;SDS011;64992;51.698;-0.292;2022-12-05T05:52:16;24.83;;;18.15;;
22015;SDS011;64992;51.698;-0.292;2022-12-05T05:54:42;24.40;;;18.25;;
22015;SDS011;64992;51.698;-0.292;2022-12-05T05:57:08;29.55;;;19.30;;
22015;SDS011;64992;51.698;-0.292;2022-12-05T05:59:34;29.23;;;18.17;;
22015;SDS011;64992;51.698;-0.292;2022-12-05T06:02:00;28.13;;;19.02;;
22015;SDS011;64992;51.698;-0.292;2022-12-05T06:04:26;26.90;;;19.40;;
22015;SDS011;64992;51.698;-0.292;2022-12-05T06:06:52;27.88;;;17.83;;
22015;SDS011;64992;51.698;-0.292;2022-12-05T06:09:18;26.38;;;17.38;;
22015;SDS011;64992;51.698;-0.292;2022-12-05T06:11:44;24.35;;;17.88;;
22015;SDS011;64992;51.698;-0.292;2022-12-05T06:14:10;30.35;;;18.40;;
22015;SDS011;64992;51.698;-0.292;2022-12-05T06:16:36;24.20;;;17.85;;
22015;SDS011;64992;51.698;-0.292;2022-12-05T06:19:02;26.75;;;18.50;;
22015;SDS011;64992;51.698;-0.292;2022-12-05T06:21:28;27.02;;;17.95;;
22015;SDS011;64992;51.698;-0.292;2022-12-05T06:23:54;30.58;;;17.83;;
22015;SDS011;64992;51.698;-0.292;2022-12-05T06:26:20;26.50;;;17.55;;
22015;SDS011;64992;51.698;-0.292;2022-12-05T06:28:47;27.92;;;19.55;;
22015;SDS011;64992;51.698;-0.292;2022-12-05T06:31:14;28.35;;;18.75;;
22015;SDS011;64992;51.698;-0.292;2022-12-05T06:33:41;26.63;;;19.92;;
22015;SDS011;64992;51.698;-0.292;2022-12-05T06:36:09;31.23;;;20.33;;
22015;SDS011;64992;51.698;-0.292;2022-12-05T06:38:35;29.88;;;18.52;;
22015;SDS011;64992;51.698;-0.292;2022-12-05T06:41:04;32.88;;;20.90;;
22015;SDS011;64992;51.698;-0.292;2022-12-05T06:43:31;31.88;;;20.23;;
22015;SDS011;64992;51.698;-0.292;2022-12-05T06:45:57;28.15;;;20.42;;
22015;SDS011;64992;51.698;-0.292;2022-12-05T06:48:23;34.38;;;20.88;;
22015;SDS011;64992;51.698;-0.292;2022-12-05T06:50:50;36.83;;;22.90;;
22015;SDS011;64992;51.698;-0.292;2022-12-05T06:53:16;32.05;;;23.40;;
22015;SDS011;64992;51.698;-0.292;2022-12-05T06:55:42;35.80;;;23.13;;
22015;SDS011;64992;51.698;-0.292;2022-12-05T06:58:09;32.53;;;20.73;;
22015;SDS011;64992;51.698;-0.292;2022-12-05T07:00:35;31.50;;;21.25;;
22015;SDS011;64992;51.698;-0.292;2022-12-05T07:03:19;31.08;;;20.33;;
22015;SDS011;64992;51.698;-0.292;2022-12-05T07:05:45;36.33;;;23.00;;
22015;SDS011;64992;51.698;-0.292;2022-12-05T07:08:11;30.55;;;20.50;;
22015;SDS011;64992;51.698;-0.292;2022-12-05T07:10:37;35.20;;;20.58;;
22015;SDS011;64992;51.698;-0.292;2022-12-05T07:13:03;28.42;;;19.38;;
22015;SDS011;64992;51.698;-0.292;2022-12-05T07:15:29;32.03;;;21.27;;
22015;SDS011;64992;51.698;-0.292;2022-12-05T07:17:55;31.02;;;19.25;;
22015;SDS011;64992;51.698;-0.292;2022-12-05T07:20:21;33.55;;;20.52;;
22015;SDS011;64992;51.698;-0.292;2022-12-05T07:22:47;35.22;;;19.00;;
22015;SDS011;64992;51.698;-0.292;2022-12-05T07:25:13;31.17;;;20.17;;
22015;SDS011;64992;51.698;-0.292;2022-12-05T07:27:39;34.60;;;22.33;;
22015;SDS011;64992;51.698;-0.292;2022-12-05T07:30:05;30.52;;;20.48;;
22015;SDS011;64992;51.698;-0.292;2022-12-05T07:32:32;32.38;;;22.27;;
22015;SDS011;64992;51.698;-0.292;2022-12-05T07:34:58;35.78;;;19.92;;
22015;SDS011;64992;51.698;-0.292;2022-12-05T07:37:24;30.73;;;20.58;;
22015;SDS011;64992;51.698;-0.292;2022-12-05T07:39:51;30.48;;;19.95;;
22015;SDS011;64992;51.698;-0.292;2022-12-05T07:42:17;27.95;;;20.83;;
22015;SDS011;64992;51.698;-0.292;2022-12-05T07:44:43;32.10;;;21.90;;
22015;SDS011;64992;51.698;-0.292;2022-12-05T07:47:09;28.58;;;20.60;;
22015;SDS011;64992;51.698;-0.292;2022-12-05T07:49:35;30.63;;;20.08;;
22015;SDS011;64992;51.698;-0.292;2022-12-05T07:52:01;37.70;;;21.10;;
22015;SDS011;64992;51.698;-0.292;2022-12-05T07:54:27;30.35;;;20.25;;
22015;SDS011;64992;51.698;-0.292;2022-12-05T07:56:53;29.83;;;19.60;;
22015;SDS011;64992;51.698;-0.292;2022-12-05T07:59:19;31.35;;;21.20;;
22015;SDS011;64992;51.698;-0.292;2022-12-05T08:01:45;35.78;;;21.15;;
22015;SDS011;64992;51.698;-0.292;2022-12-05T08:04:11;28.45;;;20.55;;
22015;SDS011;64992;51.698;-0.292;2022-12-05T08:06:37;28.98;;;19.98;;
22015;SDS011;64992;51.698;-0.292;2022-12-05T08:09:03;30.83;;;20.05;;
22015;SDS011;64992;51.698;-0.292;2022-12-05T08:11:30;33.67;;;20.30;;
22015;SDS011;64992;51.698;-0.292;2022-12-05T08:13:59;30.75;;;20.73;;
22015;SDS011;64992;51.698;-0.292;2022-12-05T08:16:26;29.88;;;20.42;;
22015;SDS011;64992;51.698;-0.292;2022-12-05T08:18:57;30.27;;;19.90;;
22015;SDS011;64992;51.698;-0.292;2022-12-05T08:21:23;35.60;;;20.80;;
22015;SDS011;64992;51.698;-0.292;2022-12-05T08:23:49;38.03;;;21.60;;
22015;SDS011;64992;51.698;-0.292;2022-12-05T08:26:20;33.88;;;21.08;;
22015;SDS011;64992;51.698;-0.292;2022-12-05T08:28:52;32.90;;;18.05;;
22015;SDS011;64992;51.698;-0.292;2022-12-05T08:31:19;32.33;;;22.58;;
22015;SDS011;64992;51.698;-0.292;2022-12-05T08:33:45;37.15;;;21.80;;
22015;SDS011;64992;51.698;-0.292;2022-12-05T08:36:12;34.85;;;22.42;;
22015;SDS011;64992;51.698;-0.292;2022-12-05T08:38:39;31.73;;;20.58;;
22015;SDS011;64992;51.698;-0.292;2022-12-05T08:41:06;79.45;;;26.25;;
22015;SDS011;64992;51.698;-0.292;2022-12-05T08:43:33;42.00;;;21.45;;
22015;SDS011;64992;51.698;-0.292;2022-12-05T08:45:59;33.30;;;24.10;;
22015;SDS011;64992;51.698;-0.292;2022-12-05T08:48:26;35.28;;;21.17;;
22015;SDS011;64992;51.698;-0.292;2022-12-05T08:50:53;34.80;;;21.77;;
22015;SDS011;64992;51.698;-0.292;2022-12-05T08:53:19;33.15;;;23.48;;
22015;SDS011;64992;51.698;-0.292;2022-12-05T08:55:45;35.53;;;21.00;;
22015;SDS011;64992;51.698;-0.292;2022-12-05T08:58:11;35.38;;;21.10;;
22015;SDS011;64992;51.698;-0.292;2022-12-05T09:00:37;36.63;;;22.23;;
22015;SDS011;64992;51.698;-0.292;2022-12-05T09:03:04;30.60;;;21.92;;
22015;SDS011;64992;51.698;-0.292;2022-12-05T09:05:31;36.65;;;22.52;;
22015;SDS011;64992;51.698;-0.292;2022-12-05T09:07:57;38.35;;;22.90;;
22015;SDS011;64992;51.698;-0.292;2022-12-05T09:10:24;40.40;;;21.80;;
22015;SDS011;64992;51.698;-0.292;2022-12-05T09:12:50;41.65;;;23.27;;
22015;SDS011;64992;51.698;-0.292;2022-12-05T09:15:16;40.08;;;23.65;;
22015;SDS011;64992;51.698;-0.292;2022-12-05T09:17:42;34.20;;;22.95;;
22015;SDS011;64992;51.698;-0.292;2022-12-05T09:20:08;33.28;;;24.80;;
22015;SDS011;64992;51.698;-0.292;2022-12-05T09:22:37;45.35;;;22.95;;
22015;SDS011;64992;51.698;-0.292;2022-12-05T09:25:04;33.15;;;21.70;;
22015;SDS011;64992;51.698;-0.292;2022-12-05T09:27:30;34.20;;;23.75;;
22015;SDS011;64992;51.698;-0.292;2022-12-05T09:29:56;41.17;;;22.83;;
22015;SDS011;64992;51.698;-0.292;2022-12-05T09:32:22;36.60;;;22.63;;
22015;SDS011;64992;51.698;-0.292;2022-12-05T09:34:48;37.50;;;22.00;;
22015;SDS011;64992;51.698;-0.292;2022-12-05T09:37:14;29.00;;;21.13;;
22015;SDS011;64992;51.698;-0.292;2022-12-05T09:39:44;31.65;;;21.35;;
22015;SDS011;64992;51.698;-0.292;2022-12-05T09:42:26;36.42;;;20.38;;
22015;SDS011;64992;51.698;-0.292;2022-12-05T09:52:25;33.20;;;20.52;;
22015;SDS011;64992;51.698;-0.292;2022-12-05T09:54:52;29.65;;;18.48;;
22015;SDS011;64992;51.698;-0.292;2022-12-05T09:57:20;36.22;;;20.25;;
22015;SDS011;64992;51.698;-0.292;2022-12-05T09:59:49;25.77;;;19.17;;
22015;SDS011;64992;51.698;-0.292;2022-12-05T10:02:30;31.30;;;18.77;;
22015;SDS011;64992;51.698;-0.292;2022-12-05T10:04:58;30.83;;;18.58;;
22015;SDS011;64992;51.698;-0.292;2022-12-05T10:15:51;29.25;;;17.38;;
22015;SDS011;64992;51.698;-0.292;2022-12-05T10:20:49;28.50;;;18.73;;
22015;SDS011;64992;51.698;-0.292;2022-12-05T10:25:42;27.05;;;18.33;;
22015;SDS011;64992;51.698;-0.292;2022-12-05T10:28:17;25.85;;;17.13;;
22015;SDS011;64992;51.698;-0.292;2022-12-05T10:30:47;29.60;;;17.60;;
22015;SDS011;64992;51.698;-0.292;2022-12-05T10:33:17;24.80;;;15.65;;
22015;SDS011;64992;51.698;-0.292;2022-12-05T10:35:45;26.67;;;17.40;;
22015;SDS011;64992;51.698;-0.292;2022-12-05T10:40:44;24.60;;;15.40;;
22015;SDS011;64992;51.698;-0.292;2022-12-05T10:43:13;22.98;;;17.75;;
22015;SDS011;64992;51.698;-0.292;2022-12-05T10:45:44;29.48;;;17.13;;
22015;SDS011;64992;51.698;-0.292;2022-12-05T10:48:11;28.05;;;16.77;;
22015;SDS011;64992;51.698;-0.292;2022-12-05T10:50:38;25.45;;;16.02;;
22015;SDS011;64992;51.698;-0.292;2022-12-05T10:53:06;20.02;;;15.75;;
22015;SDS011;64992;51.698;-0.292;2022-12-05T10:55:36;30.15;;;16.15;;
22015;SDS011;64992;51.698;-0.292;2022-12-05T10:58:12;19.67;;;14.77;;
22015;SDS011;64992;51.698;-0.292;2022-12-05T11:00:39;28.23;;;16.02;;
22015;SDS011;64992;51.698;-0.292;2022-12-05T11:03:29;20.52;;;13.85;;
22015;SDS011;64992;51.698;-0.292;2022-12-05T11:05:57;21.20;;;14.52;;
22015;SDS011;64992;51.698;-0.292;2022-12-05T11:08:25;21.73;;;14.00;;
22015;SDS011;64992;51.698;-0.292;2022-12-05T11:13:27;23.77;;;16.63;;
22015;SDS011;64992;51.698;-0.292;2022-12-05T11:15:53;24.15;;;16.05;;
22015;SDS011;64992;51.698;-0.292;2022-12-05T11:20:51;33.85;;;18.73;;
22015;SDS011;64992;51.698;-0.292;2022-12-05T11:23:22;27.55;;;17.75;;
22015;SDS011;64992;51.698;-0.292;2022-12-05T11:25:48;30.75;;;18.15;;
22015;SDS011;64992;51.698;-0.292;2022-12-05T11:30:59;31.38;;;19.77;;
22015;SDS011;64992;51.698;-0.292;2022-12-05T11:33:27;26.60;;;18.38;;
22015;SDS011;64992;51.698;-0.292;2022-12-05T11:35:54;25.73;;;19.88;;
22015;SDS011;64992;51.698;-0.292;2022-12-05T11:38:23;30.05;;;19.08;;
22015;SDS011;64992;51.698;-0.292;2022-12-05T11:41:07;26.63;;;17.27;;
22015;SDS011;64992;51.698;-0.292;2022-12-05T11:46:09;25.80;;;15.68;;
22015;SDS011;64992;51.698;-0.292;2022-12-05T11:53:50;24.65;;;16.00;;
22015;SDS011;64992;51.698;-0.292;2022-12-05T11:59:18;25.55;;;15.95;;
22015;SDS011;64992;51.698;-0.292;2022-12-05T12:04:25;25.38;;;15.10;;
22015;SDS011;64992;51.698;-0.292;2022-12-05T12:07:07;23.10;;;14.95;;
22015;SDS011;64992;51.698;-0.292;2022-12-05T12:09:41;24.08;;;15.23;;
22015;SDS011;64992;51.698;-0.292;2022-12-05T12:17:20;17.95;;;13.60;;
22015;SDS011;64992;51.698;-0.292;2022-12-05T12:24:59;21.88;;;15.13;;
22015;SDS011;64992;51.698;-0.292;2022-12-05T12:37:47;20.17;;;12.38;;
22015;SDS011;64992;51.698;-0.292;2022-12-05T12:40:28;19.42;;;11.90;;
22015;SDS011;64992;51.698;-0.292;2022-12-05T12:50:56;16.20;;;10.93;;
22015;SDS011;64992;51.698;-0.292;2022-12-05T12:53:36;14.75;;;9.93;;
22015;SDS011;64992;51.698;-0.292;2022-12-05T12:58:53;17.35;;;10.15;;
22015;SDS011;64992;51.698;-0.292;2022-12-05T13:01:36;15.60;;;9.18;;
22015;SDS011;64992;51.698;-0.292;2022-12-05T13:04:06;16.20;;;9.90;;
22015;SDS011;64992;51.698;-0.292;2022-12-05T13:06:50;14.93;;;8.88;;
22015;SDS011;64992;51.698;-0.292;2022-12-05T13:09:23;15.05;;;8.73;;
22015;SDS011;64992;51.698;-0.292;2022-12-05T13:11:51;12.70;;;8.93;;
22015;SDS011;64992;51.698;-0.292;2022-12-05T13:14:19;19.98;;;9.55;;
22015;SDS011;64992;51.698;-0.292;2022-12-05T13:16:48;17.02;;;8.40;;
22015;SDS011;64992;51.698;-0.292;2022-12-05T13:19:27;10.93;;;8.20;;
22015;SDS011;64992;51.698;-0.292;2022-12-05T13:21:55;8.68;;;7.55;;
22015;SDS011;64992;51.698;-0.292;2022-12-05T13:24:23;14.20;;;7.72;;
22015;SDS011;64992;51.698;-0.292;2022-12-05T13:26:50;12.65;;;7.82;;
22015;SDS011;64992;51.698;-0.292;2022-12-05T13:29:35;13.00;;;8.20;;
22015;SDS011;64992;51.698;-0.292;2022-12-05T13:32:03;11.60;;;7.63;;
22015;SDS011;64992;51.698;-0.292;2022-12-05T13:36:58;8.60;;;6.95;;
22015;SDS011;64992;51.698;-0.292;2022-12-05T13:39:50;11.02;;;6.93;;
22015;SDS011;64992;51.698;-0.292;2022-12-05T13:42:35;8.27;;;7.35;;
22015;SDS011;64992;51.698;-0.292;2022-12-05T13:45:15;16.25;;;8.05;;
22015;SDS011;64992;51.698;-0.292;2022-12-05T13:48:02;8.90;;;7.10;;
22015;SDS011;64992;51.698;-0.292;2022-12-05T13:50:39;12.60;;;7.40;;
22015;SDS011;64992;51.698;-0.292;2022-12-05T14:00:50;9.85;;;7.18;;
22015;SDS011;64992;51.698;-0.292;2022-12-05T14:06:02;12.13;;;7.95;;
22015;SDS011;64992;51.698;-0.292;2022-12-05T14:18:49;12.40;;;7.63;;
22015;SDS011;64992;51.698;-0.292;2022-12-05T14:30:05;12.77;;;6.78;;
22015;SDS011;64992;51.698;-0.292;2022-12-05T14:32:38;11.82;;;6.20;;
22015;SDS011;64992;51.698;-0.292;2022-12-05T14:35:10;10.15;;;6.45;;
22015;SDS011;64992;51.698;-0.292;2022-12-05T14:37:41;10.25;;;5.57;;
22015;SDS011;64992;51.698;-0.292;2022-12-05T14:42:53;9.63;;;5.75;;
22015;SDS011;64992;51.698;-0.292;2022-12-05T14:45:28;9.18;;;5.43;;
22015;SDS011;64992;51.698;-0.292;2022-12-05T14:48:05;8.40;;;5.47;;
22015;SDS011;64992;51.698;-0.292;2022-12-05T14:58:25;8.77;;;5.22;;
22015;SDS011;64992;51.698;-0.292;2022-12-05T15:00:58;11.63;;;5.60;;
22015;SDS011;64992;51.698;-0.292;2022-12-05T15:03:27;13.10;;;6.28;;
22015;SDS011;64992;51.698;-0.292;2022-12-05T15:05:54;6.95;;;5.20;;
22015;SDS011;64992;51.698;-0.292;2022-12-05T15:08:21;12.13;;;5.18;;
22015;SDS011;64992;51.698;-0.292;2022-12-05T15:10:47;9.95;;;5.68;;
22015;SDS011;64992;51.698;-0.292;2022-12-05T15:13:15;11.98;;;5.93;;
22015;SDS011;64992;51.698;-0.292;2022-12-05T15:15:49;11.57;;;5.63;;
22015;SDS011;64992;51.698;-0.292;2022-12-05T15:18:22;12.00;;;5.35;;
22015;SDS011;64992;51.698;-0.292;2022-12-05T15:20:51;11.82;;;5.53;;
22015;SDS011;64992;51.698;-0.292;2022-12-05T15:26:50;18.50;;;7.70;;
22015;SDS011;64992;51.698;-0.292;2022-12-05T15:31:33;14.77;;;6.45;;
22015;SDS011;64992;51.698;-0.292;2022-12-05T15:34:01;9.80;;;6.60;;
22015;SDS011;64992;51.698;-0.292;2022-12-05T15:36:33;10.15;;;5.85;;
22015;SDS011;64992;51.698;-0.292;2022-12-05T15:39:04;10.57;;;5.40;;
22015;SDS011;64992;51.698;-0.292;2022-12-05T15:41:31;13.23;;;5.65;;
22015;SDS011;64992;51.698;-0.292;2022-12-05T15:43:57;13.57;;;5.30;;
22015;SDS011;64992;51.698;-0.292;2022-12-05T15:46:23;14.77;;;6.30;;
22015;SDS011;64992;51.698;-0.292;2022-12-05T15:48:51;9.65;;;5.32;;
22015;SDS011;64992;51.698;-0.292;2022-12-05T15:51:18;12.80;;;4.72;;
22015;SDS011;64992;51.698;-0.292;2022-12-05T15:53:47;11.15;;;4.40;;
22015;SDS011;64992;51.698;-0.292;2022-12-05T15:56:19;10.25;;;4.40;;
22015;SDS011;64992;51.698;-0.292;2022-12-05T15:58:50;6.28;;;3.83;;
22015;SDS011;64992;51.698;-0.292;2022-12-05T16:01:21;7.43;;;4.97;;
22015;SDS011;64992;51.698;-0.292;2022-12-05T16:06:18;8.13;;;3.80;;
22015;SDS011;64992;51.698;-0.292;2022-12-05T16:08:47;14.80;;;5.07;;
22015;SDS011;64992;51.698;-0.292;2022-12-05T16:11:14;8.50;;;5.68;;
22015;SDS011;64992;51.698;-0.292;2022-12-05T16:13:44;11.20;;;5.20;;
22015;SDS011;64992;51.698;-0.292;2022-12-05T16:16:13;11.68;;;4.88;;
22015;SDS011;64992;51.698;-0.292;2022-12-05T16:18:46;10.07;;;4.82;;
22015;SDS011;64992;51.698;-0.292;2022-12-05T16:24:01;11.80;;;5.07;;
22015;SDS011;64992;51.698;-0.292;2022-12-05T16:26:28;11.40;;;4.82;;
22015;SDS011;64992;51.698;-0.292;2022-12-05T16:29:00;12.77;;;5.00;;
22015;SDS011;64992;51.698;-0.292;2022-12-05T16:31:27;11.73;;;4.80;;
22015;SDS011;64992;51.698;-0.292;2022-12-05T16:34:07;6.82;;;4.38;;
22015;SDS011;64992;51.698;-0.292;2022-12-05T16:36:42;16.73;;;5.32;;
22015;SDS011;64992;51.698;-0.292;2022-12-05T16:39:11;5.53;;;3.97;;
22015;SDS011;64992;51.698;-0.292;2022-12-05T16:41:38;11.63;;;5.03;;
22015;SDS011;64992;51.698;-0.292;2022-12-05T16:44:07;9.32;;;4.18;;
22015;SDS011;64992;51.698;-0.292;2022-12-05T16:46:50;7.90;;;3.70;;
22015;SDS011;64992;51.698;-0.292;2022-12-05T16:54:32;11.13;;;4.25;;
22015;SDS011;64992;51.698;-0.292;2022-12-05T16:56:59;9.63;;;5.10;;
22015;SDS011;64992;51.698;-0.292;2022-12-05T16:59:35;11.23;;;5.30;;
22015;SDS011;64992;51.698;-0.292;2022-12-05T17:02:02;9.55;;;5.20;;
22015;SDS011;64992;51.698;-0.292;2022-12-05T17:04:29;10.93;;;4.63;;
22015;SDS011;64992;51.698;-0.292;2022-12-05T17:06:55;13.82;;;5.57;;
22015;SDS011;64992;51.698;-0.292;2022-12-05T17:09:21;12.35;;;5.85;;
22015;SDS011;64992;51.698;-0.292;2022-12-05T17:11:48;11.93;;;5.65;;
22015;SDS011;64992;51.698;-0.292;2022-12-05T17:14:16;10.48;;;6.63;;
22015;SDS011;64992;51.698;-0.292;2022-12-05T17:16:42;12.13;;;5.97;;
22015;SDS011;64992;51.698;-0.292;2022-12-05T17:19:09;9.15;;;5.55;;
22015;SDS011;64992;51.698;-0.292;2022-12-05T17:21:35;12.93;;;6.50;;
22015;SDS011;64992;51.698;-0.292;2022-12-05T17:24:02;11.98;;;6.55;;
22015;SDS011;64992;51.698;-0.292;2022-12-05T17:26:28;11.60;;;5.78;;